sensor_id;sensor_type;location;lat;lon;timestamp;P1;durP1;ratioP1;P2;durP2;ratioP2
46835;SDS011;32573;51.290;6.926;2023-03-01T00:01:52;5.63;;;3.20;;
46835;SDS011;32573;51.290;6.926;2023-03-01T00:04:21;5.55;;;2.97;;
46835;SDS011;32573;51.290;6.926;2023-03-01T00:06:51;5.50;;;2.90;;
46835;SDS011;32573;51.290;6.926;2023-03-01T00:09:19;5.57;;;2.70;;
46835;SDS011;32573;51.290;6.926;2023-03-01T00:11:48;5.68;;;2.80;;
46835;SDS011;32573;51.290;6.926;2023-03-01T00:14:17;5.85;;;2.88;;
46835;SDS011;32573;51.290;6.926;2023-03-01T00:16:45;5.25;;;2.90;;
46835;SDS011;32573;51.290;6.926;2023-03-01T00:19:17;6.20;;;3.08;;
46835;SDS011;32573;51.290;6.926;2023-03-01T00:21:47;5.45;;;3.08;;
46835;SDS011;32573;51.290;6.926;2023-03-01T00:24:17;5.53;;;3.20;;
46835;SDS011;32573;51.290;6.926;2023-03-01T00:26:45;7.78;;;3.80;;
46835;SDS011;32573;51.290;6.926;2023-03-01T00:29:14;6.10;;;3.25;;
46835;SDS011;32573;51.290;6.926;2023-03-01T00:31:42;7.15;;;3.80;;
46835;SDS011;32573;51.290;6.926;2023-03-01T00:34:11;7.50;;;4.07;;
46835;SDS011;32573;51.290;6.926;2023-03-01T00:36:40;7.88;;;3.92;;
46835;SDS011;32573;51.290;6.926;2023-03-01T00:39:09;7.25;;;4.00;;
46835;SDS011;32573;51.290;6.926;2023-03-01T00:41:41;6.45;;;3.80;;
46835;SDS011;32573;51.290;6.926;2023-03-01T00:44:11;7.13;;;3.90;;
46835;SDS011;32573;51.290;6.926;2023-03-01T00:46:39;6.90;;;3.85;;
46835;SDS011;32573;51.290;6.926;2023-03-01T00:49:08;6.60;;;3.40;;
46835;SDS011;32573;51.290;6.926;2023-03-01T00:51:36;5.28;;;3.22;;
46835;SDS011;32573;51.290;6.926;2023-03-01T00:54:07;6.25;;;3.22;;
46835;SDS011;32573;51.290;6.926;2023-03-01T00:56:36;6.85;;;3.90;;
46835;SDS011;32573;51.290;6.926;2023-03-01T00:59:06;5.35;;;3.20;;
46835;SDS011;32573;51.290;6.926;2023-03-01T01:01:35;6.75;;;3.38;;
46835;SDS011;32573;51.290;6.926;2023-03-01T01:04:04;4.93;;;2.97;;
46835;SDS011;32573;51.290;6.926;2023-03-01T01:06:34;5.25;;;3.00;;
46835;SDS011;32573;51.290;6.926;2023-03-01T01:09:05;5.45;;;3.20;;
46835;SDS011;32573;51.290;6.926;2023-03-01T01:11:35;4.82;;;2.88;;
46835;SDS011;32573;51.290;6.926;2023-03-01T01:14:04;5.43;;;3.17;;
46835;SDS011;32573;51.290;6.926;2023-03-01T01:16:34;6.07;;;3.60;;
46835;SDS011;32573;51.290;6.926;2023-03-01T01:19:03;4.85;;;3.10;;
46835;SDS011;32573;51.290;6.926;2023-03-01T01:21:31;6.13;;;3.15;;
46835;SDS011;32573;51.290;6.926;2023-03-01T01:24:00;5.20;;;2.97;;
46835;SDS011;32573;51.290;6.926;2023-03-01T01:26:32;5.10;;;3.05;;
46835;SDS011;32573;51.290;6.926;2023-03-01T01:29:02;6.05;;;3.42;;
46835;SDS011;32573;51.290;6.926;2023-03-01T01:31:34;6.75;;;3.13;;
46835;SDS011;32573;51.290;6.926;2023-03-01T01:34:05;6.53;;;3.47;;
46835;SDS011;32573;51.290;6.926;2023-03-01T01:36:34;6.78;;;3.53;;
46835;SDS011;32573;51.290;6.926;2023-03-01T01:39:03;6.80;;;3.83;;
46835;SDS011;32573;51.290;6.926;2023-03-01T01:41:32;5.72;;;3.42;;
46835;SDS011;32573;51.290;6.926;2023-03-01T01:44:13;6.05;;;3.55;;
46835;SDS011;32573;51.290;6.926;2023-03-01T01:46:45;6.10;;;3.30;;
46835;SDS011;32573;51.290;6.926;2023-03-01T01:49:23;5.45;;;2.85;;
46835;SDS011;32573;51.290;6.926;2023-03-01T01:51:57;6.00;;;3.60;;
46835;SDS011;32573;51.290;6.926;2023-03-01T01:54:35;5.90;;;3.13;;
46835;SDS011;32573;51.290;6.926;2023-03-01T01:57:11;7.05;;;3.80;;
46835;SDS011;32573;51.290;6.926;2023-03-01T01:59:43;6.53;;;3.65;;
46835;SDS011;32573;51.290;6.926;2023-03-01T02:02:16;6.38;;;3.67;;
46835;SDS011;32573;51.290;6.926;2023-03-01T02:04:46;5.90;;;3.85;;
46835;SDS011;32573;51.290;6.926;2023-03-01T02:07:17;7.25;;;3.60;;
46835;SDS011;32573;51.290;6.926;2023-03-01T02:09:48;6.55;;;3.50;;
46835;SDS011;32573;51.290;6.926;2023-03-01T02:12:18;6.25;;;3.50;;
46835;SDS011;32573;51.290;6.926;2023-03-01T02:14:50;6.28;;;3.70;;
46835;SDS011;32573;51.290;6.926;2023-03-01T02:17:20;6.38;;;3.60;;
46835;SDS011;32573;51.290;6.926;2023-03-01T02:19:53;7.13;;;4.10;;
46835;SDS011;32573;51.290;6.926;2023-03-01T02:22:34;6.38;;;3.58;;
46835;SDS011;32573;51.290;6.926;2023-03-01T02:25:07;7.28;;;4.50;;
46835;SDS011;32573;51.290;6.926;2023-03-01T02:27:48;7.35;;;3.90;;
46835;SDS011;32573;51.290;6.926;2023-03-01T02:30:24;6.43;;;4.18;;
46835;SDS011;32573;51.290;6.926;2023-03-01T02:32:53;6.68;;;4.10;;
46835;SDS011;32573;51.290;6.926;2023-03-01T02:35:30;6.22;;;3.80;;
46835;SDS011;32573;51.290;6.926;2023-03-01T02:38:01;8.00;;;5.18;;
46835;SDS011;32573;51.290;6.926;2023-03-01T02:40:34;6.65;;;3.75;;
46835;SDS011;32573;51.290;6.926;2023-03-01T02:43:06;5.80;;;3.33;;
46835;SDS011;32573;51.290;6.926;2023-03-01T02:45:47;7.20;;;3.58;;
46835;SDS011;32573;51.290;6.926;2023-03-01T02:48:17;6.75;;;3.72;;
46835;SDS011;32573;51.290;6.926;2023-03-01T02:50:52;5.97;;;3.53;;
46835;SDS011;32573;51.290;6.926;2023-03-01T02:53:35;6.88;;;3.85;;
46835;SDS011;32573;51.290;6.926;2023-03-01T02:56:10;6.38;;;3.90;;
46835;SDS011;32573;51.290;6.926;2023-03-01T02:58:42;6.25;;;3.92;;
46835;SDS011;32573;51.290;6.926;2023-03-01T03:01:17;9.40;;;4.90;;
46835;SDS011;32573;51.290;6.926;2023-03-01T03:03:46;10.82;;;5.50;;
46835;SDS011;32573;51.290;6.926;2023-03-01T03:06:16;7.40;;;5.00;;
46835;SDS011;32573;51.290;6.926;2023-03-01T03:08:45;8.18;;;4.80;;
46835;SDS011;32573;51.290;6.926;2023-03-01T03:11:13;7.68;;;4.68;;
46835;SDS011;32573;51.290;6.926;2023-03-01T03:13:42;7.70;;;4.00;;
46835;SDS011;32573;51.290;6.926;2023-03-01T03:16:16;7.85;;;4.80;;
46835;SDS011;32573;51.290;6.926;2023-03-01T03:18:45;7.45;;;4.00;;
46835;SDS011;32573;51.290;6.926;2023-03-01T03:21:14;6.75;;;4.47;;
46835;SDS011;32573;51.290;6.926;2023-03-01T03:23:43;6.53;;;4.03;;
46835;SDS011;32573;51.290;6.926;2023-03-01T03:26:12;7.57;;;3.70;;
46835;SDS011;32573;51.290;6.926;2023-03-01T03:28:42;7.25;;;4.10;;
46835;SDS011;32573;51.290;6.926;2023-03-01T03:31:10;6.20;;;3.90;;
46835;SDS011;32573;51.290;6.926;2023-03-01T03:33:40;7.45;;;3.83;;
46835;SDS011;32573;51.290;6.926;2023-03-01T03:36:09;6.10;;;3.47;;
46835;SDS011;32573;51.290;6.926;2023-03-01T03:38:39;6.28;;;3.78;;
46835;SDS011;32573;51.290;6.926;2023-03-01T03:41:08;6.25;;;3.63;;
46835;SDS011;32573;51.290;6.926;2023-03-01T03:43:37;5.85;;;3.45;;
46835;SDS011;32573;51.290;6.926;2023-03-01T03:46:07;5.30;;;3.30;;
46835;SDS011;32573;51.290;6.926;2023-03-01T03:48:37;7.00;;;3.75;;
46835;SDS011;32573;51.290;6.926;2023-03-01T03:51:11;6.97;;;3.63;;
46835;SDS011;32573;51.290;6.926;2023-03-01T03:53:40;9.02;;;4.05;;
46835;SDS011;32573;51.290;6.926;2023-03-01T03:56:09;6.95;;;3.60;;
46835;SDS011;32573;51.290;6.926;2023-03-01T03:58:38;6.95;;;3.92;;
46835;SDS011;32573;51.290;6.926;2023-03-01T04:01:07;5.95;;;3.50;;
46835;SDS011;32573;51.290;6.926;2023-03-01T04:03:35;7.43;;;4.57;;
46835;SDS011;32573;51.290;6.926;2023-03-01T04:06:04;6.68;;;4.00;;
46835;SDS011;32573;51.290;6.926;2023-03-01T04:08:34;6.68;;;3.33;;
46835;SDS011;32573;51.290;6.926;2023-03-01T04:11:03;6.25;;;3.63;;
46835;SDS011;32573;51.290;6.926;2023-03-01T04:13:46;6.18;;;3.63;;
46835;SDS011;32573;51.290;6.926;2023-03-01T04:16:15;5.93;;;3.53;;
46835;SDS011;32573;51.290;6.926;2023-03-01T04:18:44;6.55;;;3.58;;
46835;SDS011;32573;51.290;6.926;2023-03-01T04:21:13;6.43;;;3.42;;
46835;SDS011;32573;51.290;6.926;2023-03-01T04:23:43;6.32;;;3.75;;
46835;SDS011;32573;51.290;6.926;2023-03-01T04:26:11;6.97;;;3.70;;
46835;SDS011;32573;51.290;6.926;2023-03-01T04:28:41;6.53;;;3.90;;
46835;SDS011;32573;51.290;6.926;2023-03-01T04:31:12;5.70;;;3.30;;
46835;SDS011;32573;51.290;6.926;2023-03-01T04:33:46;7.05;;;3.63;;
46835;SDS011;32573;51.290;6.926;2023-03-01T04:36:18;6.68;;;3.53;;
46835;SDS011;32573;51.290;6.926;2023-03-01T04:38:49;8.18;;;4.40;;
46835;SDS011;32573;51.290;6.926;2023-03-01T04:41:19;7.35;;;4.30;;
46835;SDS011;32573;51.290;6.926;2023-03-01T04:43:49;7.68;;;4.03;;
46835;SDS011;32573;51.290;6.926;2023-03-01T04:46:18;8.23;;;4.43;;
46835;SDS011;32573;51.290;6.926;2023-03-01T04:48:48;8.57;;;4.22;;
46835;SDS011;32573;51.290;6.926;2023-03-01T04:51:16;5.85;;;3.63;;
46835;SDS011;32573;51.290;6.926;2023-03-01T04:53:45;7.25;;;4.05;;
46835;SDS011;32573;51.290;6.926;2023-03-01T04:56:15;8.23;;;4.38;;
46835;SDS011;32573;51.290;6.926;2023-03-01T04:58:45;6.93;;;4.00;;
46835;SDS011;32573;51.290;6.926;2023-03-01T05:01:15;7.03;;;4.07;;
46835;SDS011;32573;51.290;6.926;2023-03-01T05:03:45;7.53;;;4.20;;
46835;SDS011;32573;51.290;6.926;2023-03-01T05:06:15;10.82;;;5.40;;
46835;SDS011;32573;51.290;6.926;2023-03-01T05:08:44;9.05;;;5.03;;
46835;SDS011;32573;51.290;6.926;2023-03-01T05:11:13;9.45;;;5.00;;
46835;SDS011;32573;51.290;6.926;2023-03-01T05:13:43;8.98;;;5.05;;
46835;SDS011;32573;51.290;6.926;2023-03-01T05:16:11;8.43;;;4.90;;
46835;SDS011;32573;51.290;6.926;2023-03-01T05:18:40;10.60;;;5.40;;
46835;SDS011;32573;51.290;6.926;2023-03-01T05:21:11;9.30;;;5.30;;
46835;SDS011;32573;51.290;6.926;2023-03-01T05:23:43;11.27;;;5.35;;
46835;SDS011;32573;51.290;6.926;2023-03-01T05:26:12;8.10;;;4.95;;
46835;SDS011;32573;51.290;6.926;2023-03-01T05:28:55;8.63;;;4.60;;
46835;SDS011;32573;51.290;6.926;2023-03-01T05:31:26;8.07;;;4.47;;
46835;SDS011;32573;51.290;6.926;2023-03-01T05:33:54;7.68;;;4.53;;
46835;SDS011;32573;51.290;6.926;2023-03-01T05:36:23;6.82;;;3.83;;
46835;SDS011;32573;51.290;6.926;2023-03-01T05:38:51;8.23;;;5.18;;
46835;SDS011;32573;51.290;6.926;2023-03-01T05:41:20;8.32;;;4.25;;
46835;SDS011;32573;51.290;6.926;2023-03-01T05:43:48;7.00;;;4.40;;
46835;SDS011;32573;51.290;6.926;2023-03-01T05:46:18;7.93;;;4.40;;
46835;SDS011;32573;51.290;6.926;2023-03-01T05:48:47;7.57;;;4.40;;
46835;SDS011;32573;51.290;6.926;2023-03-01T05:51:15;7.95;;;4.45;;
46835;SDS011;32573;51.290;6.926;2023-03-01T05:53:44;7.00;;;4.25;;
46835;SDS011;32573;51.290;6.926;2023-03-01T05:56:13;8.07;;;4.93;;
46835;SDS011;32573;51.290;6.926;2023-03-01T05:58:41;8.40;;;5.25;;
46835;SDS011;32573;51.290;6.926;2023-03-01T06:01:10;8.77;;;4.93;;
46835;SDS011;32573;51.290;6.926;2023-03-01T06:03:41;7.70;;;4.53;;
46835;SDS011;32573;51.290;6.926;2023-03-01T06:06:09;8.07;;;4.30;;
46835;SDS011;32573;51.290;6.926;2023-03-01T06:08:38;7.88;;;4.53;;
46835;SDS011;32573;51.290;6.926;2023-03-01T06:11:06;8.43;;;5.45;;
46835;SDS011;32573;51.290;6.926;2023-03-01T06:13:35;8.85;;;5.05;;
46835;SDS011;32573;51.290;6.926;2023-03-01T06:16:04;9.45;;;4.38;;
46835;SDS011;32573;51.290;6.926;2023-03-01T06:18:33;8.20;;;4.72;;
46835;SDS011;32573;51.290;6.926;2023-03-01T06:21:04;9.75;;;5.00;;
46835;SDS011;32573;51.290;6.926;2023-03-01T06:23:33;10.32;;;5.35;;
46835;SDS011;32573;51.290;6.926;2023-03-01T06:26:04;7.45;;;4.38;;
46835;SDS011;32573;51.290;6.926;2023-03-01T06:28:34;8.90;;;4.63;;
46835;SDS011;32573;51.290;6.926;2023-03-01T06:31:03;9.13;;;4.60;;
46835;SDS011;32573;51.290;6.926;2023-03-01T06:33:35;9.10;;;5.30;;
46835;SDS011;32573;51.290;6.926;2023-03-01T06:36:06;7.57;;;4.53;;
46835;SDS011;32573;51.290;6.926;2023-03-01T06:38:36;7.93;;;4.43;;
46835;SDS011;32573;51.290;6.926;2023-03-01T06:41:05;8.73;;;4.57;;
46835;SDS011;32573;51.290;6.926;2023-03-01T06:43:34;8.20;;;4.43;;
46835;SDS011;32573;51.290;6.926;2023-03-01T06:46:05;7.25;;;4.53;;
46835;SDS011;32573;51.290;6.926;2023-03-01T06:48:34;11.70;;;5.93;;
46835;SDS011;32573;51.290;6.926;2023-03-01T06:51:03;7.07;;;4.47;;
46835;SDS011;32573;51.290;6.926;2023-03-01T06:53:33;8.02;;;5.00;;
46835;SDS011;32573;51.290;6.926;2023-03-01T06:56:02;7.57;;;4.25;;
46835;SDS011;32573;51.290;6.926;2023-03-01T06:58:31;11.00;;;5.38;;
46835;SDS011;32573;51.290;6.926;2023-03-01T07:00:59;10.23;;;5.15;;
46835;SDS011;32573;51.290;6.926;2023-03-01T07:03:28;7.90;;;4.57;;
46835;SDS011;32573;51.290;6.926;2023-03-01T07:05:56;8.73;;;4.80;;
46835;SDS011;32573;51.290;6.926;2023-03-01T07:08:24;7.43;;;4.60;;
46835;SDS011;32573;51.290;6.926;2023-03-01T07:10:57;7.65;;;4.25;;
46835;SDS011;32573;51.290;6.926;2023-03-01T07:13:28;9.15;;;5.03;;
46835;SDS011;32573;51.290;6.926;2023-03-01T07:15:57;8.73;;;4.88;;
46835;SDS011;32573;51.290;6.926;2023-03-01T07:18:26;9.65;;;5.25;;
46835;SDS011;32573;51.290;6.926;2023-03-01T07:20:54;10.23;;;5.10;;
46835;SDS011;32573;51.290;6.926;2023-03-01T07:23:23;10.10;;;5.63;;
46835;SDS011;32573;51.290;6.926;2023-03-01T07:25:52;8.77;;;5.25;;
46835;SDS011;32573;51.290;6.926;2023-03-01T07:28:23;8.60;;;5.07;;
46835;SDS011;32573;51.290;6.926;2023-03-01T07:30:52;9.32;;;4.95;;
46835;SDS011;32573;51.290;6.926;2023-03-01T07:33:21;9.30;;;4.80;;
46835;SDS011;32573;51.290;6.926;2023-03-01T07:35:55;8.65;;;4.80;;
46835;SDS011;32573;51.290;6.926;2023-03-01T07:38:24;7.88;;;4.70;;
46835;SDS011;32573;51.290;6.926;2023-03-01T07:40:53;8.45;;;5.00;;
46835;SDS011;32573;51.290;6.926;2023-03-01T07:43:27;9.20;;;4.75;;
46835;SDS011;32573;51.290;6.926;2023-03-01T07:45:57;9.55;;;5.15;;
46835;SDS011;32573;51.290;6.926;2023-03-01T07:48:26;9.65;;;4.80;;
46835;SDS011;32573;51.290;6.926;2023-03-01T07:50:57;8.73;;;4.85;;
46835;SDS011;32573;51.290;6.926;2023-03-01T07:53:26;9.07;;;5.45;;
46835;SDS011;32573;51.290;6.926;2023-03-01T07:56:02;8.35;;;5.05;;
46835;SDS011;32573;51.290;6.926;2023-03-01T07:58:34;9.90;;;5.25;;
46835;SDS011;32573;51.290;6.926;2023-03-01T08:01:05;8.77;;;5.18;;
46835;SDS011;32573;51.290;6.926;2023-03-01T08:03:34;8.00;;;5.07;;
46835;SDS011;32573;51.290;6.926;2023-03-01T08:06:03;9.60;;;5.43;;
46835;SDS011;32573;51.290;6.926;2023-03-01T08:08:33;11.80;;;5.63;;
46835;SDS011;32573;51.290;6.926;2023-03-01T08:11:03;10.02;;;5.72;;
46835;SDS011;32573;51.290;6.926;2023-03-01T08:13:35;11.40;;;6.50;;
46835;SDS011;32573;51.290;6.926;2023-03-01T08:16:04;10.77;;;6.35;;
46835;SDS011;32573;51.290;6.926;2023-03-01T08:18:34;13.18;;;7.68;;
46835;SDS011;32573;51.290;6.926;2023-03-01T08:21:03;12.00;;;7.20;;
46835;SDS011;32573;51.290;6.926;2023-03-01T08:23:32;12.93;;;7.22;;
46835;SDS011;32573;51.290;6.926;2023-03-01T08:26:04;10.55;;;6.70;;
46835;SDS011;32573;51.290;6.926;2023-03-01T08:28:36;11.57;;;6.73;;
46835;SDS011;32573;51.290;6.926;2023-03-01T08:31:12;11.20;;;6.22;;
46835;SDS011;32573;51.290;6.926;2023-03-01T08:33:42;13.40;;;6.13;;
46835;SDS011;32573;51.290;6.926;2023-03-01T08:36:10;10.48;;;6.35;;
46835;SDS011;32573;51.290;6.926;2023-03-01T08:38:39;10.50;;;6.30;;
46835;SDS011;32573;51.290;6.926;2023-03-01T08:41:07;12.55;;;6.82;;
46835;SDS011;32573;51.290;6.926;2023-03-01T08:43:37;12.35;;;7.00;;
46835;SDS011;32573;51.290;6.926;2023-03-01T08:46:05;12.20;;;6.90;;
46835;SDS011;32573;51.290;6.926;2023-03-01T08:48:34;11.93;;;6.78;;
46835;SDS011;32573;51.290;6.926;2023-03-01T08:51:08;12.13;;;7.13;;
46835;SDS011;32573;51.290;6.926;2023-03-01T08:53:38;11.38;;;6.30;;
46835;SDS011;32573;51.290;6.926;2023-03-01T08:56:07;11.05;;;5.82;;
46835;SDS011;32573;51.290;6.926;2023-03-01T08:58:37;12.40;;;6.20;;
46835;SDS011;32573;51.290;6.926;2023-03-01T09:01:07;11.45;;;6.32;;
46835;SDS011;32573;51.290;6.926;2023-03-01T09:03:36;12.00;;;7.03;;
46835;SDS011;32573;51.290;6.926;2023-03-01T09:06:06;10.65;;;6.32;;
46835;SDS011;32573;51.290;6.926;2023-03-01T09:08:35;9.40;;;5.68;;
46835;SDS011;32573;51.290;6.926;2023-03-01T09:11:04;11.75;;;7.40;;
46835;SDS011;32573;51.290;6.926;2023-03-01T09:13:34;12.13;;;6.18;;
46835;SDS011;32573;51.290;6.926;2023-03-01T09:16:05;11.30;;;7.10;;
46835;SDS011;32573;51.290;6.926;2023-03-01T09:18:35;12.07;;;6.53;;
46835;SDS011;32573;51.290;6.926;2023-03-01T09:21:04;12.32;;;6.57;;
46835;SDS011;32573;51.290;6.926;2023-03-01T09:23:34;11.95;;;6.65;;
46835;SDS011;32573;51.290;6.926;2023-03-01T09:26:06;13.55;;;7.53;;
46835;SDS011;32573;51.290;6.926;2023-03-01T09:28:35;11.05;;;5.93;;
46835;SDS011;32573;51.290;6.926;2023-03-01T09:31:06;9.70;;;5.88;;
46835;SDS011;32573;51.290;6.926;2023-03-01T09:33:34;11.05;;;6.22;;
46835;SDS011;32573;51.290;6.926;2023-03-01T09:36:04;11.57;;;7.20;;
46835;SDS011;32573;51.290;6.926;2023-03-01T09:38:35;10.02;;;6.18;;
46835;SDS011;32573;51.290;6.926;2023-03-01T09:41:08;10.73;;;6.25;;
46835;SDS011;32573;51.290;6.926;2023-03-01T09:43:40;12.25;;;6.60;;
46835;SDS011;32573;51.290;6.926;2023-03-01T09:46:15;12.05;;;6.68;;
46835;SDS011;32573;51.290;6.926;2023-03-01T09:48:45;11.50;;;6.90;;
46835;SDS011;32573;51.290;6.926;2023-03-01T09:51:18;11.18;;;6.35;;
46835;SDS011;32573;51.290;6.926;2023-03-01T09:53:50;14.23;;;6.65;;
46835;SDS011;32573;51.290;6.926;2023-03-01T09:56:22;12.50;;;6.85;;
46835;SDS011;32573;51.290;6.926;2023-03-01T09:58:58;11.20;;;6.80;;
46835;SDS011;32573;51.290;6.926;2023-03-01T10:01:38;12.52;;;6.57;;
46835;SDS011;32573;51.290;6.926;2023-03-01T10:07:37;11.43;;;6.88;;
46835;SDS011;32573;51.290;6.926;2023-03-01T10:10:16;11.40;;;6.95;;
46835;SDS011;32573;51.290;6.926;2023-03-01T10:13:09;11.93;;;6.28;;
46835;SDS011;32573;51.290;6.926;2023-03-01T10:15:47;14.15;;;6.78;;
46835;SDS011;32573;51.290;6.926;2023-03-01T10:18:23;11.63;;;6.20;;
46835;SDS011;32573;51.290;6.926;2023-03-01T10:20:56;11.13;;;6.30;;
46835;SDS011;32573;51.290;6.926;2023-03-01T10:23:27;10.60;;;6.25;;
46835;SDS011;32573;51.290;6.926;2023-03-01T10:26:05;12.60;;;6.95;;
46835;SDS011;32573;51.290;6.926;2023-03-01T10:28:42;11.43;;;6.57;;
46835;SDS011;32573;51.290;6.926;2023-03-01T10:31:18;10.73;;;6.10;;
46835;SDS011;32573;51.290;6.926;2023-03-01T10:33:56;10.00;;;5.95;;
46835;SDS011;32573;51.290;6.926;2023-03-01T10:36:25;9.98;;;6.43;;
46835;SDS011;32573;51.290;6.926;2023-03-01T10:38:55;9.02;;;5.40;;
46835;SDS011;32573;51.290;6.926;2023-03-01T10:41:25;11.13;;;6.35;;
46835;SDS011;32573;51.290;6.926;2023-03-01T10:43:57;9.25;;;5.43;;
46835;SDS011;32573;51.290;6.926;2023-03-01T10:46:28;9.40;;;5.90;;
46835;SDS011;32573;51.290;6.926;2023-03-01T10:49:07;9.52;;;5.63;;
46835;SDS011;32573;51.290;6.926;2023-03-01T10:51:42;9.18;;;5.55;;
46835;SDS011;32573;51.290;6.926;2023-03-01T10:54:16;9.60;;;5.78;;
46835;SDS011;32573;51.290;6.926;2023-03-01T10:56:48;7.10;;;4.60;;
46835;SDS011;32573;51.290;6.926;2023-03-01T10:59:22;8.38;;;5.10;;
46835;SDS011;32573;51.290;6.926;2023-03-01T11:02:08;8.52;;;5.13;;
46835;SDS011;32573;51.290;6.926;2023-03-01T11:05:00;7.30;;;4.80;;
46835;SDS011;32573;51.290;6.926;2023-03-01T11:07:31;8.57;;;4.85;;
46835;SDS011;32573;51.290;6.926;2023-03-01T11:10:16;9.80;;;5.20;;
46835;SDS011;32573;51.290;6.926;2023-03-01T11:12:46;8.07;;;5.25;;
46835;SDS011;32573;51.290;6.926;2023-03-01T11:15:25;8.65;;;5.45;;
46835;SDS011;32573;51.290;6.926;2023-03-01T11:17:54;7.93;;;4.80;;
46835;SDS011;32573;51.290;6.926;2023-03-01T11:20:40;8.98;;;5.20;;
46835;SDS011;32573;51.290;6.926;2023-03-01T11:23:10;9.43;;;5.55;;
46835;SDS011;32573;51.290;6.926;2023-03-01T11:25:40;9.30;;;5.13;;
46835;SDS011;32573;51.290;6.926;2023-03-01T11:28:12;8.13;;;5.28;;
46835;SDS011;32573;51.290;6.926;2023-03-01T11:30:46;9.48;;;5.63;;
46835;SDS011;32573;51.290;6.926;2023-03-01T11:33:35;8.88;;;5.50;;
46835;SDS011;32573;51.290;6.926;2023-03-01T11:36:13;9.65;;;5.03;;
46835;SDS011;32573;51.290;6.926;2023-03-01T11:38:48;8.15;;;5.07;;
46835;SDS011;32573;51.290;6.926;2023-03-01T11:41:18;8.55;;;5.03;;
46835;SDS011;32573;51.290;6.926;2023-03-01T11:43:50;7.85;;;4.80;;
46835;SDS011;32573;51.290;6.926;2023-03-01T11:46:35;9.15;;;5.55;;
46835;SDS011;32573;51.290;6.926;2023-03-01T11:49:40;7.57;;;4.57;;
46835;SDS011;32573;51.290;6.926;2023-03-01T11:52:25;7.85;;;5.05;;
46835;SDS011;32573;51.290;6.926;2023-03-01T11:55:14;7.97;;;5.10;;
46835;SDS011;32573;51.290;6.926;2023-03-01T11:57:55;8.68;;;5.03;;
46835;SDS011;32573;51.290;6.926;2023-03-01T12:00:39;9.02;;;4.90;;
46835;SDS011;32573;51.290;6.926;2023-03-01T12:03:25;8.13;;;4.57;;
46835;SDS011;32573;51.290;6.926;2023-03-01T12:06:05;7.25;;;4.40;;
46835;SDS011;32573;51.290;6.926;2023-03-01T12:08:54;7.18;;;4.00;;
46835;SDS011;32573;51.290;6.926;2023-03-01T12:11:37;9.25;;;4.82;;
46835;SDS011;32573;51.290;6.926;2023-03-01T12:14:21;7.93;;;4.50;;
46835;SDS011;32573;51.290;6.926;2023-03-01T12:17:12;8.07;;;4.97;;
46835;SDS011;32573;51.290;6.926;2023-03-01T12:19:54;9.18;;;4.80;;
46835;SDS011;32573;51.290;6.926;2023-03-01T12:22:38;7.53;;;4.75;;
46835;SDS011;32573;51.290;6.926;2023-03-01T12:25:20;6.80;;;4.45;;
46835;SDS011;32573;51.290;6.926;2023-03-01T12:28:03;8.10;;;4.60;;
46835;SDS011;32573;51.290;6.926;2023-03-01T12:30:45;8.77;;;4.80;;
46835;SDS011;32573;51.290;6.926;2023-03-01T12:33:26;7.28;;;4.22;;
46835;SDS011;32573;51.290;6.926;2023-03-01T12:36:14;7.60;;;4.43;;
46835;SDS011;32573;51.290;6.926;2023-03-01T12:39:04;9.48;;;5.10;;
46835;SDS011;32573;51.290;6.926;2023-03-01T12:41:48;7.00;;;4.45;;
46835;SDS011;32573;51.290;6.926;2023-03-01T12:44:29;6.95;;;4.18;;
46835;SDS011;32573;51.290;6.926;2023-03-01T12:47:12;7.32;;;4.40;;
46835;SDS011;32573;51.290;6.926;2023-03-01T12:49:48;6.00;;;3.70;;
46835;SDS011;32573;51.290;6.926;2023-03-01T12:52:20;7.50;;;4.20;;
46835;SDS011;32573;51.290;6.926;2023-03-01T12:54:56;7.18;;;4.00;;
46835;SDS011;32573;51.290;6.926;2023-03-01T12:57:31;7.25;;;3.60;;
46835;SDS011;32573;51.290;6.926;2023-03-01T13:00:11;6.93;;;4.32;;
46835;SDS011;32573;51.290;6.926;2023-03-01T13:02:51;6.55;;;4.20;;
46835;SDS011;32573;51.290;6.926;2023-03-01T13:05:31;7.28;;;4.40;;
46835;SDS011;32573;51.290;6.926;2023-03-01T13:08:09;8.32;;;4.70;;
46835;SDS011;32573;51.290;6.926;2023-03-01T13:10:46;7.25;;;4.32;;
46835;SDS011;32573;51.290;6.926;2023-03-01T13:13:20;7.07;;;4.25;;
46835;SDS011;32573;51.290;6.926;2023-03-01T13:15:49;6.38;;;3.97;;
46835;SDS011;32573;51.290;6.926;2023-03-01T13:18:26;6.97;;;4.28;;
46835;SDS011;32573;51.290;6.926;2023-03-01T13:20:57;7.50;;;4.25;;
46835;SDS011;32573;51.290;6.926;2023-03-01T13:23:29;7.45;;;4.10;;
46835;SDS011;32573;51.290;6.926;2023-03-01T13:26:05;7.28;;;4.00;;
46835;SDS011;32573;51.290;6.926;2023-03-01T13:34:48;6.97;;;4.05;;
46835;SDS011;32573;51.290;6.926;2023-03-01T13:37:28;8.45;;;4.30;;
46835;SDS011;32573;51.290;6.926;2023-03-01T13:39:58;5.88;;;3.55;;
46835;SDS011;32573;51.290;6.926;2023-03-01T13:42:38;7.07;;;4.25;;
46835;SDS011;32573;51.290;6.926;2023-03-01T13:45:19;8.38;;;4.03;;
46835;SDS011;32573;51.290;6.926;2023-03-01T13:47:51;6.87;;;4.37;;
46835;SDS011;32573;51.290;6.926;2023-03-01T13:50:25;8.07;;;4.18;;
46835;SDS011;32573;51.290;6.926;2023-03-01T13:52:56;5.55;;;3.50;;
46835;SDS011;32573;51.290;6.926;2023-03-01T13:55:31;8.00;;;4.40;;
46835;SDS011;32573;51.290;6.926;2023-03-01T13:58:13;6.15;;;3.75;;
46835;SDS011;32573;51.290;6.926;2023-03-01T14:00:45;6.15;;;3.53;;
46835;SDS011;32573;51.290;6.926;2023-03-01T14:03:15;7.18;;;3.92;;
46835;SDS011;32573;51.290;6.926;2023-03-01T14:05:56;7.57;;;4.55;;
46835;SDS011;32573;51.290;6.926;2023-03-01T14:08:42;7.05;;;3.97;;
46835;SDS011;32573;51.290;6.926;2023-03-01T14:11:28;6.40;;;3.97;;
46835;SDS011;32573;51.290;6.926;2023-03-01T14:14:23;7.40;;;4.13;;
46835;SDS011;32573;51.290;6.926;2023-03-01T14:17:07;7.50;;;3.78;;
46835;SDS011;32573;51.290;6.926;2023-03-01T14:19:43;6.90;;;4.00;;
46835;SDS011;32573;51.290;6.926;2023-03-01T14:22:16;8.27;;;4.13;;
46835;SDS011;32573;51.290;6.926;2023-03-01T14:24:49;6.97;;;3.70;;
46835;SDS011;32573;51.290;6.926;2023-03-01T14:27:18;6.35;;;3.88;;
46835;SDS011;32573;51.290;6.926;2023-03-01T14:29:54;5.82;;;3.50;;
46835;SDS011;32573;51.290;6.926;2023-03-01T14:32:25;6.03;;;3.45;;
46835;SDS011;32573;51.290;6.926;2023-03-01T14:34:55;6.45;;;3.88;;
46835;SDS011;32573;51.290;6.926;2023-03-01T14:37:26;6.72;;;3.80;;
46835;SDS011;32573;51.290;6.926;2023-03-01T14:39:57;6.57;;;3.70;;
46835;SDS011;32573;51.290;6.926;2023-03-01T14:42:28;5.78;;;3.55;;
46835;SDS011;32573;51.290;6.926;2023-03-01T14:44:58;6.95;;;3.97;;
46835;SDS011;32573;51.290;6.926;2023-03-01T14:47:31;6.15;;;3.90;;
46835;SDS011;32573;51.290;6.926;2023-03-01T14:50:02;6.47;;;3.97;;
46835;SDS011;32573;51.290;6.926;2023-03-01T14:52:35;5.95;;;3.50;;
46835;SDS011;32573;51.290;6.926;2023-03-01T14:55:07;6.32;;;3.63;;
46835;SDS011;32573;51.290;6.926;2023-03-01T14:57:44;6.78;;;3.65;;
46835;SDS011;32573;51.290;6.926;2023-03-01T15:00:16;6.50;;;3.78;;
46835;SDS011;32573;51.290;6.926;2023-03-01T15:02:49;6.47;;;3.80;;
46835;SDS011;32573;51.290;6.926;2023-03-01T15:05:22;7.07;;;4.22;;
46835;SDS011;32573;51.290;6.926;2023-03-01T15:07:55;6.95;;;3.80;;
46835;SDS011;32573;51.290;6.926;2023-03-01T15:10:26;6.85;;;3.67;;
46835;SDS011;32573;51.290;6.926;2023-03-01T15:13:09;5.95;;;3.28;;
46835;SDS011;32573;51.290;6.926;2023-03-01T15:15:38;6.45;;;3.67;;
46835;SDS011;32573;51.290;6.926;2023-03-01T15:18:15;7.15;;;3.88;;
46835;SDS011;32573;51.290;6.926;2023-03-01T15:20:46;6.00;;;3.47;;
46835;SDS011;32573;51.290;6.926;2023-03-01T15:23:18;6.03;;;3.45;;
46835;SDS011;32573;51.290;6.926;2023-03-01T15:25:50;5.65;;;3.53;;
46835;SDS011;32573;51.290;6.926;2023-03-01T15:28:26;5.90;;;3.05;;